createdAt,value
2017-02-09T00:00:10.019Z,1027.88
2017-02-09T00:01:18.968Z,1027.85
2017-02-09T00:02:27.912Z,1027.93
2017-02-09T00:03:36.861Z,1027.91
2017-02-09T00:04:45.894Z,1027.87
2017-02-09T00:05:54.843Z,1027.88
2017-02-09T00:07:03.798Z,1027.87
2017-02-09T00:08:13.149Z,1027.89
2017-02-09T00:09:22.097Z,1027.85
2017-02-09T00:10:31.047Z,1027.88
2017-02-09T00:11:39.992Z,1027.88
2017-02-09T00:12:48.939Z,1027.88
2017-02-09T00:13:57.896Z,1027.89
2017-02-09T00:15:06.844Z,1027.92
2017-02-09T00:16:15.874Z,1027.94
2017-02-09T00:17:24.825Z,1027.95
2017-02-09T00:18:33.768Z,1027.96
2017-02-09T00:19:42.717Z,1027.97
2017-02-09T00:20:51.665Z,1027.96
2017-02-09T00:22:00.611Z,1028
2017-02-09T00:23:09.556Z,1027.97
2017-02-09T00:24:18.510Z,1028.02
2017-02-09T00:25:27.461Z,1027.98
2017-02-09T00:26:36.405Z,1027.98
2017-02-09T00:27:45.360Z,1027.96
2017-02-09T00:28:54.305Z,1028.01
2017-02-09T00:30:03.256Z,1028
2017-02-09T00:31:12.209Z,1028.04
2017-02-09T00:32:21.253Z,1028.01
2017-02-09T00:33:30.203Z,1028.07
2017-02-09T00:34:39.231Z,1028.03
2017-02-09T00:35:48.180Z,1028.12
2017-02-09T00:36:57.302Z,1028.07
2017-02-09T00:38:06.254Z,1028.08
2017-02-09T00:39:15.202Z,1028.12
2017-02-09T00:40:24.149Z,1028.08
2017-02-09T00:41:33.100Z,1028.12
2017-02-09T00:42:42.049Z,1028.1
2017-02-09T00:43:50.994Z,1028.09
2017-02-09T00:45:00.025Z,1028.1
2017-02-09T00:46:09.380Z,1028.12
2017-02-09T00:47:18.332Z,1028.11
2017-02-09T00:48:27.282Z,1028.1
2017-02-09T00:49:36.237Z,1028.14
2017-02-09T00:50:45.187Z,1028.16
2017-02-09T00:51:54.133Z,1028.17
2017-02-09T00:53:03.085Z,1028.18
2017-02-09T00:54:12.036Z,1028.23
2017-02-09T00:55:21.073Z,1028.22
2017-02-09T00:56:30.019Z,1028.15
2017-02-09T00:57:38.973Z,1028.16
2017-02-09T00:58:47.927Z,1028.17
2017-02-09T00:59:56.873Z,1028.17
2017-02-09T01:01:05.823Z,1028.18
2017-02-09T01:02:15.455Z,1028.23
2017-02-09T01:03:24.404Z,1028.17
2017-02-09T01:04:33.759Z,1028.25
2017-02-09T01:05:42.707Z,1028.21
2017-02-09T01:06:51.742Z,1028.24
2017-02-09T01:08:00.685Z,1028.24
2017-02-09T01:09:09.635Z,1028.24
2017-02-09T01:10:18.583Z,1028.26
2017-02-09T01:11:27.531Z,1028.24
2017-02-09T01:12:36.479Z,1028.23
2017-02-09T01:13:45.429Z,1028.3
2017-02-09T01:14:54.375Z,1028.28
2017-02-09T01:16:03.731Z,1028.27
2017-02-09T01:17:12.765Z,1028.26
2017-02-09T01:18:21.715Z,1028.24
2017-02-09T01:19:30.749Z,1028.27
2017-02-09T01:20:39.694Z,1028.24
2017-02-09T01:21:48.649Z,1028.28
2017-02-09T01:22:57.600Z,1028.28
2017-02-09T01:24:06.543Z,1028.31
2017-02-09T01:25:15.490Z,1028.29
2017-02-09T01:26:24.844Z,1028.27
2017-02-09T01:27:34.198Z,1028.26
2017-02-09T01:28:43.146Z,1028.23
2017-02-09T01:29:52.097Z,1028.23
2017-02-09T01:31:01.136Z,1028.19
2017-02-09T01:32:10.082Z,1028.24
2017-02-09T01:33:19.029Z,1028.21
2017-02-09T01:34:27.973Z,1028.25
2017-02-09T01:35:37.004Z,1028.23
2017-02-09T01:36:46.037Z,1028.27
2017-02-09T01:37:54.980Z,1028.23
2017-02-09T01:39:03.927Z,1028.21
2017-02-09T01:40:12.873Z,1028.26
2017-02-09T01:41:21.824Z,1028.25
2017-02-09T01:42:30.771Z,1028.26
2017-02-09T01:43:39.718Z,1028.21
2017-02-09T01:44:48.760Z,1028.25
2017-02-09T01:45:57.872Z,1028.22
2017-02-09T01:47:06.823Z,1028.23
2017-02-09T01:48:15.773Z,1028.23
2017-02-09T01:49:24.720Z,1028.2
2017-02-09T01:50:33.664Z,1028.22
2017-02-09T01:51:42.613Z,1028.2
2017-02-09T01:52:51.557Z,1028.17
2017-02-09T01:54:00.516Z,1028.2
2017-02-09T01:55:09.553Z,1028.14
2017-02-09T01:56:18.504Z,1028.15
2017-02-09T01:57:27.452Z,1028.13
2017-02-09T01:58:36.398Z,1028.11
2017-02-09T01:59:45.344Z,1028.12
2017-02-09T02:00:54.292Z,1028.13
2017-02-09T02:02:03.332Z,1028.11
2017-02-09T02:03:12.278Z,1028.1
2017-02-09T02:04:21.223Z,1028.1
2017-02-09T02:05:30.171Z,1028.05
2017-02-09T02:06:39.126Z,1028.08
2017-02-09T02:07:48.077Z,1028.08
2017-02-09T02:08:57.031Z,1028.07
2017-02-09T02:10:05.985Z,1028.1
2017-02-09T02:11:14.926Z,1028.09
2017-02-09T02:12:24.275Z,1028.13
2017-02-09T02:13:33.665Z,1028.09
2017-02-09T02:14:42.699Z,1028.1
2017-02-09T02:15:51.648Z,1028.1
2017-02-09T02:17:00.593Z,1028.11
2017-02-09T02:18:09.542Z,1028.05
2017-02-09T02:19:18.487Z,1028.08
2017-02-09T02:20:27.452Z,1028.08
2017-02-09T02:21:36.806Z,1028.1
2017-02-09T02:22:45.754Z,1028.11
2017-02-09T02:23:54.712Z,1028.09
2017-02-09T02:25:04.062Z,1028.06
2017-02-09T02:26:13.009Z,1028.05
2017-02-09T02:27:21.960Z,1028.06
2017-02-09T02:28:30.906Z,1028.06
2017-02-09T02:29:39.853Z,1028.05
2017-02-09T02:30:48.804Z,1028.07
2017-02-09T02:31:57.749Z,1028.05
2017-02-09T02:33:06.695Z,1028.08
2017-02-09T02:34:15.654Z,1028.04
2017-02-09T02:35:25.011Z,1028.04
2017-02-09T02:36:34.238Z,1028.07
2017-02-09T02:37:43.593Z,1028.05
2017-02-09T02:38:52.630Z,1028
2017-02-09T02:40:01.578Z,1028.06
2017-02-09T02:41:10.530Z,1028.04
2017-02-09T02:42:19.475Z,1028.02
2017-02-09T02:43:28.511Z,1028.02
2017-02-09T02:44:37.863Z,1028.03
2017-02-09T02:45:46.808Z,1028
2017-02-09T02:46:55.776Z,1028.01
2017-02-09T02:48:04.948Z,1028
2017-02-09T02:49:14.143Z,1028.02
2017-02-09T02:50:23.127Z,1028.04
2017-02-09T02:51:32.075Z,1028.03
2017-02-09T02:52:41.023Z,1028.03
2017-02-09T02:53:49.971Z,1028.02
2017-02-09T02:54:58.921Z,1028.03
2017-02-09T02:56:07.865Z,1027.99
2017-02-09T02:57:16.813Z,1028.01
2017-02-09T02:58:25.763Z,1028.03
2017-02-09T02:59:34.706Z,1028.06
2017-02-09T03:00:43.655Z,1028.03
2017-02-09T03:01:53.010Z,1028.02
2017-02-09T03:03:02.046Z,1028.07
2017-02-09T03:04:10.989Z,1028.07
2017-02-09T03:05:19.932Z,1028.09
2017-02-09T03:06:28.883Z,1028.09
2017-02-09T03:07:37.834Z,1028.1
2017-02-09T03:08:46.780Z,1028.11
2017-02-09T03:09:55.727Z,1028.12
2017-02-09T03:11:04.680Z,1028.1
2017-02-09T03:12:13.629Z,1028.14
2017-02-09T03:13:22.664Z,1028.1
2017-02-09T03:14:31.697Z,1028.09
2017-02-09T03:15:40.732Z,1028.12
2017-02-09T03:16:49.681Z,1028.17
2017-02-09T03:17:58.630Z,1028.18
2017-02-09T03:19:07.577Z,1028.17
2017-02-09T03:20:16.522Z,1028.16
2017-02-09T03:21:25.481Z,1028.18
2017-02-09T03:22:34.462Z,1028.18
2017-02-09T03:23:43.412Z,1028.19
2017-02-09T03:24:52.445Z,1028.19
2017-02-09T03:26:01.389Z,1028.19
2017-02-09T03:27:10.338Z,1028.18
2017-02-09T03:28:19.286Z,1028.26
2017-02-09T03:29:28.230Z,1028.24
2017-02-09T03:30:37.178Z,1028.25
2017-02-09T03:31:46.122Z,1028.26
2017-02-09T03:32:55.067Z,1028.26
2017-02-09T03:34:04.426Z,1028.24
2017-02-09T03:35:13.372Z,1028.27
2017-02-09T03:36:22.321Z,1028.27
2017-02-09T03:37:31.671Z,1028.3
2017-02-09T03:38:40.623Z,1028.27
2017-02-09T03:39:49.747Z,1028.29
2017-02-09T03:40:58.700Z,1028.28
2017-02-09T03:42:07.647Z,1028.3
2017-02-09T03:43:16.679Z,1028.33
2017-02-09T03:44:25.630Z,1028.39
2017-02-09T03:45:34.580Z,1028.38
2017-02-09T03:46:43.528Z,1028.35
2017-02-09T03:47:52.477Z,1028.32
2017-02-09T03:49:01.425Z,1028.3
2017-02-09T03:50:10.370Z,1028.35
2017-02-09T03:51:19.724Z,1028.33
2017-02-09T03:52:28.672Z,1028.35
2017-02-09T03:53:38.027Z,1028.39
2017-02-09T03:54:46.973Z,1028.36
2017-02-09T03:55:55.925Z,1028.36
2017-02-09T03:57:04.877Z,1028.36
2017-02-09T03:58:13.827Z,1028.37
2017-02-09T03:59:22.775Z,1028.34
2017-02-09T04:00:31.896Z,1028.37
2017-02-09T04:01:40.858Z,1028.3
2017-02-09T04:02:49.803Z,1028.33
2017-02-09T04:03:58.836Z,1028.35
2017-02-09T04:05:07.793Z,1028.33
2017-02-09T04:06:16.747Z,1028.3
2017-02-09T04:07:25.787Z,1028.3
2017-02-09T04:08:34.824Z,1028.34
2017-02-09T04:09:43.768Z,1028.34
2017-02-09T04:10:52.736Z,1028.33
2017-02-09T04:12:01.686Z,1028.31
2017-02-09T04:13:10.633Z,1028.33
2017-02-09T04:14:19.577Z,1028.35
2017-02-09T04:15:28.527Z,1028.37
2017-02-09T04:16:37.507Z,1028.3
2017-02-09T04:17:46.457Z,1028.36
2017-02-09T04:18:55.409Z,1028.35
2017-02-09T04:20:04.359Z,1028.35
2017-02-09T04:21:13.309Z,1028.39
2017-02-09T04:22:22.663Z,1028.39
2017-02-09T04:23:31.613Z,1028.4
2017-02-09T04:24:40.559Z,1028.39
2017-02-09T04:25:49.509Z,1028.41
2017-02-09T04:26:58.456Z,1028.41
2017-02-09T04:28:07.492Z,1028.44
2017-02-09T04:29:16.435Z,1028.39
2017-02-09T04:30:25.380Z,1028.44
2017-02-09T04:31:34.329Z,1028.39
2017-02-09T04:32:43.279Z,1028.39
2017-02-09T04:33:52.225Z,1028.4
2017-02-09T04:35:01.173Z,1028.4
2017-02-09T04:36:10.120Z,1028.41
2017-02-09T04:37:19.478Z,1028.41
2017-02-09T04:38:28.421Z,1028.4
2017-02-09T04:39:37.378Z,1028.38
2017-02-09T04:40:46.730Z,1028.41
2017-02-09T04:41:55.676Z,1028.37
2017-02-09T04:43:04.628Z,1028.32
2017-02-09T04:44:13.981Z,1028.32
2017-02-09T04:45:22.935Z,1028.38
2017-02-09T04:46:31.881Z,1028.39
2017-02-09T04:47:40.828Z,1028.36
2017-02-09T04:48:49.774Z,1028.39
2017-02-09T04:49:58.724Z,1028.39
2017-02-09T04:51:07.679Z,1028.37
2017-02-09T04:52:16.630Z,1028.37
2017-02-09T04:53:25.578Z,1028.35
2017-02-09T04:54:34.551Z,1028.34
2017-02-09T04:55:43.498Z,1028.38
2017-02-09T04:56:52.442Z,1028.34
2017-02-09T04:58:01.389Z,1028.31
2017-02-09T04:59:10.335Z,1028.31
2017-02-09T05:00:19.281Z,1028.33
2017-02-09T05:01:28.226Z,1028.31
2017-02-09T05:02:37.173Z,1028.24
2017-02-09T05:03:46.118Z,1028.28
2017-02-09T05:04:55.072Z,1028.26
2017-02-09T05:06:04.017Z,1028.3
2017-02-09T05:07:13.060Z,1028.28
2017-02-09T05:08:22.097Z,1028.31
2017-02-09T05:09:31.044Z,1028.35
2017-02-09T05:10:40.396Z,1028.35
2017-02-09T05:11:49.427Z,1028.33
2017-02-09T05:12:58.407Z,1028.37
2017-02-09T05:14:07.445Z,1028.37
2017-02-09T05:15:16.390Z,1028.34
2017-02-09T05:16:25.423Z,1028.34
2017-02-09T05:17:34.368Z,1028.35
2017-02-09T05:18:43.318Z,1028.33
2017-02-09T05:19:52.264Z,1028.35
2017-02-09T05:21:01.210Z,1028.38
2017-02-09T05:22:10.159Z,1028.34
2017-02-09T05:23:19.108Z,1028.34
2017-02-09T05:24:28.058Z,1028.38
2017-02-09T05:25:36.999Z,1028.34
2017-02-09T05:26:45.945Z,1028.38
2017-02-09T05:27:54.892Z,1028.4
2017-02-09T05:29:03.839Z,1028.34
2017-02-09T05:30:12.875Z,1028.34
2017-02-09T05:31:21.819Z,1028.35
2017-02-09T05:32:30.764Z,1028.31
2017-02-09T05:33:39.709Z,1028.29
2017-02-09T05:34:48.658Z,1028.34
2017-02-09T05:35:57.606Z,1028.36
2017-02-09T05:37:06.555Z,1028.37
2017-02-09T05:38:15.504Z,1028.36
2017-02-09T05:39:24.450Z,1028.45
2017-02-09T05:40:33.399Z,1028.4
2017-02-09T05:41:42.354Z,1028.41
2017-02-09T05:42:51.302Z,1028.4
2017-02-09T05:44:00.278Z,1028.4
2017-02-09T05:45:09.223Z,1028.46
2017-02-09T05:46:18.170Z,1028.45
2017-02-09T05:47:27.116Z,1028.43
2017-02-09T05:48:36.065Z,1028.46
2017-02-09T05:49:45.007Z,1028.45
2017-02-09T05:50:53.956Z,1028.46
2017-02-09T05:52:02.915Z,1028.48
2017-02-09T05:53:11.951Z,1028.48
2017-02-09T05:54:20.902Z,1028.45
2017-02-09T05:55:29.849Z,1028.46
2017-02-09T05:56:38.883Z,1028.49
2017-02-09T05:57:47.828Z,1028.49
2017-02-09T05:58:56.775Z,1028.52
2017-02-09T06:00:05.728Z,1028.5
2017-02-09T06:01:14.673Z,1028.51
2017-02-09T06:02:23.622Z,1028.57
2017-02-09T06:03:32.571Z,1028.54
2017-02-09T06:04:41.529Z,1028.57
2017-02-09T06:05:50.475Z,1028.64
2017-02-09T06:06:59.421Z,1028.63
2017-02-09T06:08:08.368Z,1028.63
2017-02-09T06:09:17.315Z,1028.69
2017-02-09T06:10:26.263Z,1028.63
2017-02-09T06:11:35.206Z,1028.61
2017-02-09T06:12:44.153Z,1028.63
2017-02-09T06:13:53.100Z,1028.65
2017-02-09T06:15:02.049Z,1028.62
2017-02-09T06:16:11.006Z,1028.65
2017-02-09T06:17:19.952Z,1028.58
2017-02-09T06:18:29.306Z,1028.62
2017-02-09T06:19:38.259Z,1028.6
2017-02-09T06:20:47.210Z,1028.64
2017-02-09T06:21:56.158Z,1028.63
2017-02-09T06:23:05.105Z,1028.69
2017-02-09T06:24:14.051Z,1028.65
2017-02-09T06:25:23.035Z,1028.68
2017-02-09T06:26:31.983Z,1028.67
2017-02-09T06:27:40.930Z,1028.64
2017-02-09T06:28:49.879Z,1028.66
2017-02-09T06:29:58.859Z,1028.68
2017-02-09T06:31:07.812Z,1028.69
2017-02-09T06:32:16.760Z,1028.67
2017-02-09T06:33:25.705Z,1028.7
2017-02-09T06:34:34.655Z,1028.64
2017-02-09T06:35:43.602Z,1028.68
2017-02-09T06:36:52.545Z,1028.7
2017-02-09T06:38:01.578Z,1028.7
2017-02-09T06:39:10.522Z,1028.72
2017-02-09T06:40:19.469Z,1028.71
2017-02-09T06:41:28.421Z,1028.72
2017-02-09T06:42:37.373Z,1028.75
2017-02-09T06:43:46.323Z,1028.76
2017-02-09T06:44:55.275Z,1028.76
2017-02-09T06:46:04.634Z,1028.74
2017-02-09T06:47:13.577Z,1028.72
2017-02-09T06:48:22.524Z,1028.73
2017-02-09T06:49:31.471Z,1028.79
2017-02-09T06:50:40.414Z,1028.74
2017-02-09T06:51:49.376Z,1028.8
2017-02-09T06:52:58.324Z,1028.82
2017-02-09T06:54:07.270Z,1028.82
2017-02-09T06:55:16.220Z,1028.86
2017-02-09T06:56:25.167Z,1028.85
2017-02-09T06:57:34.111Z,1028.89
2017-02-09T06:58:43.064Z,1028.84
2017-02-09T06:59:52.012Z,1028.85
2017-02-09T07:01:00.968Z,1028.85
2017-02-09T07:02:09.916Z,1028.86
2017-02-09T07:03:18.862Z,1028.88
2017-02-09T07:04:27.804Z,1028.81
2017-02-09T07:05:36.762Z,1028.83
2017-02-09T07:06:45.730Z,1028.85
2017-02-09T07:07:54.677Z,1028.82
2017-02-09T07:09:03.627Z,1028.84
2017-02-09T07:10:12.577Z,1028.84
2017-02-09T07:11:21.524Z,1028.83
2017-02-09T07:12:30.477Z,1028.86
2017-02-09T07:13:39.457Z,1028.82
2017-02-09T07:14:48.405Z,1028.82
2017-02-09T07:15:57.438Z,1028.85
2017-02-09T07:17:06.388Z,1028.9
2017-02-09T07:18:15.335Z,1028.87
2017-02-09T07:19:24.284Z,1028.95
2017-02-09T07:20:33.240Z,1028.9
2017-02-09T07:21:42.183Z,1028.97
2017-02-09T07:22:51.133Z,1028.99
2017-02-09T07:24:00.115Z,1029.01
2017-02-09T07:25:09.478Z,1029.01
2017-02-09T07:26:18.424Z,1029
2017-02-09T07:27:27.370Z,1029.04
2017-02-09T07:28:36.319Z,1029.04
2017-02-09T07:29:45.274Z,1029.03
2017-02-09T07:30:54.304Z,1029.03
2017-02-09T07:32:03.249Z,1029
2017-02-09T07:33:12.197Z,1029.02
2017-02-09T07:34:21.144Z,1028.98
2017-02-09T07:35:30.090Z,1029.03
2017-02-09T07:36:39.035Z,1029.02
2017-02-09T07:37:47.985Z,1029.04
2017-02-09T07:38:56.934Z,1029.03
2017-02-09T07:40:05.886Z,1029.09
2017-02-09T07:41:14.926Z,1029.05
2017-02-09T07:42:24.285Z,1029.06
2017-02-09T07:43:33.235Z,1029
2017-02-09T07:44:42.180Z,1029.06
2017-02-09T07:45:51.538Z,1029.03
2017-02-09T07:47:00.513Z,1029.06
2017-02-09T07:48:09.467Z,1029.04
2017-02-09T07:49:18.503Z,1029.05
2017-02-09T07:50:27.452Z,1029.08
2017-02-09T07:51:36.398Z,1029.01
2017-02-09T07:52:45.350Z,1029.02
2017-02-09T07:53:54.301Z,1029.02
2017-02-09T07:55:03.247Z,1028.96
2017-02-09T07:56:12.609Z,1029.05
2017-02-09T07:57:21.559Z,1029.05
2017-02-09T07:58:30.513Z,1029.05
2017-02-09T07:59:39.464Z,1029.03
2017-02-09T08:00:48.499Z,1029.02
2017-02-09T08:01:57.448Z,1029.04
2017-02-09T08:03:07.231Z,1029.05
2017-02-09T08:04:16.182Z,1029.06
2017-02-09T08:05:25.217Z,1029.01
2017-02-09T08:06:34.200Z,1029.07
2017-02-09T08:07:43.151Z,1029.02
2017-02-09T08:08:52.094Z,1029.07
2017-02-09T08:10:01.046Z,1029.08
2017-02-09T08:11:09.998Z,1029.05
2017-02-09T08:12:18.945Z,1029
2017-02-09T08:13:27.900Z,1029.05
2017-02-09T08:14:37.496Z,1029.05
2017-02-09T08:15:47.068Z,1029.08
2017-02-09T08:16:56.279Z,1029.04
2017-02-09T08:18:05.938Z,1029.03
2017-02-09T08:19:14.889Z,1029.08
2017-02-09T08:20:23.838Z,1029.09
2017-02-09T08:21:33.197Z,1029.11
2017-02-09T08:22:44.057Z,1029.08
2017-02-09T08:23:53.007Z,1029.11
2017-02-09T08:25:02.734Z,1029.11
2017-02-09T08:26:12.716Z,1029.13
2017-02-09T08:27:23.043Z,1029.11
2017-02-09T08:28:33.325Z,1029.1
2017-02-09T08:29:42.638Z,1029.08
2017-02-09T08:30:51.582Z,1029.01
2017-02-09T08:32:00.671Z,1029.01
2017-02-09T08:33:09.622Z,1028.99
2017-02-09T08:34:19.556Z,1029
2017-02-09T08:35:28.782Z,1028.95
2017-02-09T08:36:37.730Z,1028.96
2017-02-09T08:37:46.769Z,1028.97
2017-02-09T08:38:56.130Z,1028.96
2017-02-09T08:40:05.424Z,1028.97
2017-02-09T08:41:14.399Z,1028.97
2017-02-09T08:42:23.347Z,1029
2017-02-09T08:43:32.681Z,1028.97
2017-02-09T08:44:42.775Z,1029.01
2017-02-09T08:45:52.130Z,1029.05
2017-02-09T08:47:02.563Z,1029
2017-02-09T08:48:12.248Z,1029.04
2017-02-09T08:49:21.197Z,1028.98
2017-02-09T08:50:30.151Z,1028.96
2017-02-09T08:51:39.960Z,1028.97
2017-02-09T08:52:50.090Z,1028.99
2017-02-09T08:53:59.363Z,1029
2017-02-09T08:55:08.316Z,1029.03
2017-02-09T08:56:17.965Z,1028.94
2017-02-09T08:57:26.914Z,1028.97
2017-02-09T08:58:35.866Z,1029.01
2017-02-09T08:59:46.307Z,1028.98
2017-02-09T09:00:55.580Z,1029
2017-02-09T09:02:04.536Z,1028.99
2017-02-09T09:03:14.117Z,1029.02
2017-02-09T09:04:23.065Z,1029.02
2017-02-09T09:05:32.261Z,1029
2017-02-09T09:06:41.459Z,1029
2017-02-09T09:07:50.821Z,1028.91
2017-02-09T09:09:00.175Z,1028.95
2017-02-09T09:10:09.208Z,1029
2017-02-09T09:11:18.160Z,1029.01
2017-02-09T09:12:27.106Z,1028.97
2017-02-09T09:13:36.052Z,1028.98
2017-02-09T09:14:45.096Z,1029.01
2017-02-09T09:15:54.046Z,1028.94
2017-02-09T09:17:02.997Z,1028.99
2017-02-09T09:18:12.379Z,1029.02
2017-02-09T09:19:21.395Z,1029.02
2017-02-09T09:20:30.346Z,1029.05
2017-02-09T09:21:39.296Z,1029.08
2017-02-09T09:22:48.242Z,1029.14
2017-02-09T09:23:57.196Z,1029.05
2017-02-09T09:25:06.147Z,1029.03
2017-02-09T09:26:15.913Z,1029.01
2017-02-09T09:27:24.863Z,1029.02
2017-02-09T09:28:34.851Z,1029.03
2017-02-09T09:29:44.109Z,1029.04
2017-02-09T09:30:53.817Z,1029.03
2017-02-09T09:32:02.767Z,1028.98
2017-02-09T09:33:13.271Z,1029.03
2017-02-09T09:34:23.299Z,1029.02
2017-02-09T09:35:32.603Z,1029.03
2017-02-09T09:36:41.939Z,1028.96
2017-02-09T09:37:51.257Z,1029
2017-02-09T09:39:00.211Z,1028.99
2017-02-09T09:40:10.249Z,1029
2017-02-09T09:41:19.287Z,1028.98
2017-02-09T09:42:29.085Z,1028.99
2017-02-09T09:43:38.880Z,1028.98
2017-02-09T09:44:47.827Z,1028.94
2017-02-09T09:45:57.494Z,1029.01
2017-02-09T09:47:07.096Z,1028.98
2017-02-09T09:48:16.181Z,1028.99
2017-02-09T09:49:25.717Z,1028.97
2017-02-09T09:50:34.666Z,1029.03
2017-02-09T09:51:43.612Z,1029.01
2017-02-09T09:52:52.716Z,1028.99
2017-02-09T09:54:02.890Z,1029.04
2017-02-09T09:55:12.546Z,1029.02
2017-02-09T09:56:21.580Z,1029.06
2017-02-09T09:57:31.269Z,1029.02
2017-02-09T09:58:40.816Z,1029
2017-02-09T09:59:49.855Z,1028.97
2017-02-09T10:00:59.517Z,1028.98
2017-02-09T10:02:09.154Z,1029.03
2017-02-09T10:03:18.683Z,1028.99
2017-02-09T10:04:27.862Z,1028.98
2017-02-09T10:05:37.390Z,1028.96
2017-02-09T10:06:48.580Z,1028.99
2017-02-09T10:07:58.106Z,1028.98
2017-02-09T10:09:07.144Z,1029.03
2017-02-09T10:10:16.107Z,1029
2017-02-09T10:11:25.052Z,1029
2017-02-09T10:12:34.090Z,1028.92
2017-02-09T10:13:43.125Z,1028.98
2017-02-09T10:14:52.175Z,1028.97
2017-02-09T10:16:01.130Z,1028.98
2017-02-09T10:17:10.080Z,1028.98
2017-02-09T10:18:19.027Z,1028.95
2017-02-09T10:19:27.984Z,1028.96
2017-02-09T10:20:37.424Z,1028.94
2017-02-09T10:21:46.378Z,1028.94
2017-02-09T10:22:55.325Z,1028.97
2017-02-09T10:24:04.281Z,1028.96
2017-02-09T10:25:13.231Z,1028.9
2017-02-09T10:26:22.179Z,1028.92
2017-02-09T10:27:31.126Z,1028.87
2017-02-09T10:28:40.074Z,1028.89
2017-02-09T10:29:49.026Z,1028.9
2017-02-09T10:30:57.978Z,1028.92
2017-02-09T10:32:07.019Z,1028.94
2017-02-09T10:33:15.965Z,1028.96
2017-02-09T10:34:24.914Z,1028.96
2017-02-09T10:35:33.865Z,1029.04
2017-02-09T10:36:42.909Z,1029
2017-02-09T10:37:51.861Z,1028.98
2017-02-09T10:39:00.811Z,1028.94
2017-02-09T10:40:09.755Z,1028.97
2017-02-09T10:41:18.702Z,1028.91
2017-02-09T10:42:28.061Z,1028.9
2017-02-09T10:43:37.006Z,1028.85
2017-02-09T10:44:46.038Z,1028.87
2017-02-09T10:45:54.987Z,1028.86
2017-02-09T10:47:04.434Z,1028.91
2017-02-09T10:48:13.386Z,1028.89
2017-02-09T10:49:22.336Z,1028.93
2017-02-09T10:50:31.278Z,1028.9
2017-02-09T10:51:40.260Z,1028.88
2017-02-09T10:52:49.213Z,1028.91
2017-02-09T10:53:58.246Z,1028.91
2017-02-09T10:55:07.193Z,1028.87
2017-02-09T10:56:16.225Z,1028.93
2017-02-09T10:57:25.273Z,1028.92
2017-02-09T10:58:34.223Z,1028.93
2017-02-09T10:59:43.169Z,1028.92
2017-02-09T11:00:52.113Z,1028.85
2017-02-09T11:02:01.064Z,1028.91
2017-02-09T11:03:10.009Z,1028.88
2017-02-09T11:04:18.963Z,1028.86
2017-02-09T11:05:27.917Z,1028.83
2017-02-09T11:06:36.868Z,1028.84
2017-02-09T11:07:45.816Z,1028.84
2017-02-09T11:08:54.760Z,1028.78
2017-02-09T11:10:03.708Z,1028.82
2017-02-09T11:11:12.659Z,1028.77
2017-02-09T11:12:21.611Z,1028.81
2017-02-09T11:13:30.566Z,1028.76
2017-02-09T11:14:39.550Z,1028.76
2017-02-09T11:15:48.592Z,1028.76
2017-02-09T11:16:57.544Z,1028.73
2017-02-09T11:18:06.491Z,1028.75
2017-02-09T11:19:15.440Z,1028.76
2017-02-09T11:20:24.391Z,1028.76
2017-02-09T11:21:33.747Z,1028.69
2017-02-09T11:22:42.696Z,1028.69
2017-02-09T11:23:51.643Z,1028.68
2017-02-09T11:25:00.596Z,1028.63
2017-02-09T11:26:09.546Z,1028.65
2017-02-09T11:27:18.498Z,1028.58
2017-02-09T11:28:27.445Z,1028.56
2017-02-09T11:29:36.396Z,1028.61
2017-02-09T11:30:45.342Z,1028.61
2017-02-09T11:31:54.290Z,1028.56
2017-02-09T11:33:03.239Z,1028.58
2017-02-09T11:34:12.275Z,1028.55
2017-02-09T11:35:21.224Z,1028.52
2017-02-09T11:36:30.174Z,1028.53
2017-02-09T11:37:39.122Z,1028.51
2017-02-09T11:38:48.075Z,1028.56
2017-02-09T11:39:57.027Z,1028.47
2017-02-09T11:41:06.383Z,1028.43
2017-02-09T11:42:15.333Z,1028.43
2017-02-09T11:43:24.284Z,1028.57
2017-02-09T11:44:33.234Z,1028.49
2017-02-09T11:45:42.187Z,1028.47
2017-02-09T11:46:51.138Z,1028.5
2017-02-09T11:48:00.095Z,1028.5
2017-02-09T11:49:09.046Z,1028.49
2017-02-09T11:50:17.991Z,1028.45
2017-02-09T11:51:26.937Z,1028.52
2017-02-09T11:52:35.884Z,1028.44
2017-02-09T11:53:45.003Z,1028.46
2017-02-09T11:54:53.947Z,1028.4
2017-02-09T11:56:02.897Z,1028.44
2017-02-09T11:57:11.871Z,1028.43
2017-02-09T11:58:20.818Z,1028.39
2017-02-09T11:59:29.850Z,1028.37
2017-02-09T12:00:38.804Z,1028.41
2017-02-09T12:01:47.753Z,1028.39
2017-02-09T12:02:56.703Z,1028.42
2017-02-09T12:04:05.646Z,1028.38
2017-02-09T12:05:14.591Z,1028.38
2017-02-09T12:06:23.626Z,1028.4
2017-02-09T12:07:32.571Z,1028.38
2017-02-09T12:08:41.516Z,1028.38
2017-02-09T12:09:50.463Z,1028.42
2017-02-09T12:10:59.414Z,1028.36
2017-02-09T12:12:08.365Z,1028.31
2017-02-09T12:13:17.316Z,1028.3
2017-02-09T12:14:26.271Z,1028.28
2017-02-09T12:15:35.218Z,1028.23
2017-02-09T12:16:44.168Z,1028.27
2017-02-09T12:17:53.115Z,1028.2
2017-02-09T12:19:02.066Z,1028.23
2017-02-09T12:20:11.012Z,1028.18
2017-02-09T12:21:19.962Z,1028.22
2017-02-09T12:22:28.910Z,1028.17
2017-02-09T12:23:37.858Z,1028.18
2017-02-09T12:24:46.806Z,1028.19
2017-02-09T12:25:55.750Z,1028.2
2017-02-09T12:27:05.107Z,1028.2
2017-02-09T12:28:14.051Z,1028.17
2017-02-09T12:29:22.997Z,1028.13
2017-02-09T12:30:32.036Z,1028.19
2017-02-09T12:31:40.980Z,1028.15
2017-02-09T12:32:49.928Z,1028.15
2017-02-09T12:33:58.880Z,1028.13
2017-02-09T12:35:07.826Z,1028.1
2017-02-09T12:36:16.776Z,1028.09
2017-02-09T12:37:25.729Z,1028.05
2017-02-09T12:38:34.679Z,1028.05
2017-02-09T12:39:43.628Z,1028.04
2017-02-09T12:40:52.660Z,1028.1
2017-02-09T12:42:01.609Z,1028.08
2017-02-09T12:43:10.562Z,1028.07
2017-02-09T12:44:19.538Z,1028.02
2017-02-09T12:45:28.492Z,1028.06
2017-02-09T12:46:37.439Z,1028.13
2017-02-09T12:47:46.419Z,1028.13
2017-02-09T12:48:55.372Z,1028.14
2017-02-09T12:50:04.318Z,1028.08
2017-02-09T12:51:13.281Z,1028.09
2017-02-09T12:52:22.230Z,1028.07
2017-02-09T12:53:31.180Z,1028.06
2017-02-09T12:54:40.214Z,1028.04
2017-02-09T12:55:49.165Z,1028.06
2017-02-09T12:56:58.147Z,1028.1
2017-02-09T12:58:07.099Z,1028.04
2017-02-09T12:59:16.049Z,1028.09
2017-02-09T13:00:24.998Z,1028.06
2017-02-09T13:01:34.359Z,1028.06
2017-02-09T13:02:43.310Z,1028.09
2017-02-09T13:03:52.254Z,1028.11
2017-02-09T13:05:01.199Z,1028.06
2017-02-09T13:06:10.150Z,1028.06
2017-02-09T13:07:19.187Z,1027.97
2017-02-09T13:08:28.134Z,1027.97
2017-02-09T13:09:37.489Z,1027.98
2017-02-09T13:10:46.524Z,1027.99
2017-02-09T13:11:55.476Z,1027.97
2017-02-09T13:13:04.431Z,1027.98
2017-02-09T13:14:13.382Z,1027.93
2017-02-09T13:15:22.334Z,1027.94
2017-02-09T13:16:31.284Z,1027.94
2017-02-09T13:17:40.321Z,1027.91
2017-02-09T13:18:49.268Z,1027.93
2017-02-09T13:19:58.217Z,1027.89
2017-02-09T13:21:07.254Z,1027.92
2017-02-09T13:22:16.215Z,1027.92
2017-02-09T13:23:25.175Z,1027.9
2017-02-09T13:24:34.126Z,1027.9
2017-02-09T13:25:43.074Z,1027.92
2017-02-09T13:26:52.027Z,1027.89
2017-02-09T13:28:01.387Z,1027.83
2017-02-09T13:29:10.342Z,1027.87
2017-02-09T13:30:19.290Z,1027.82
2017-02-09T13:31:28.242Z,1027.86
2017-02-09T13:32:37.195Z,1027.8
2017-02-09T13:33:46.144Z,1027.81
2017-02-09T13:34:55.184Z,1027.77
2017-02-09T13:36:04.549Z,1027.77
2017-02-09T13:37:13.495Z,1027.8
2017-02-09T13:38:22.442Z,1027.78
2017-02-09T13:39:31.389Z,1027.78
2017-02-09T13:40:40.331Z,1027.76
2017-02-09T13:41:49.279Z,1027.79
2017-02-09T13:42:58.230Z,1027.76
2017-02-09T13:44:07.179Z,1027.76
2017-02-09T13:45:16.132Z,1027.78
2017-02-09T13:46:25.085Z,1027.77
2017-02-09T13:47:34.036Z,1027.79
2017-02-09T13:48:42.986Z,1027.82
2017-02-09T13:49:51.931Z,1027.73
2017-02-09T13:51:01.055Z,1027.73
2017-02-09T13:52:10.002Z,1027.73
2017-02-09T13:53:18.960Z,1027.64
2017-02-09T13:54:27.907Z,1027.67
2017-02-09T13:55:36.856Z,1027.65
2017-02-09T13:56:45.809Z,1027.64
2017-02-09T13:57:54.759Z,1027.65
2017-02-09T13:59:04.119Z,1027.62